Time;durP1;ratioP1;P1;durP2;ratioP2;P2;SDS_P1;SDS_P2;PMS_P1;PMS_P2;Temp;Humidity;BMP_temperature;BMP_pressure;BME280_temperature;BME280_humidity;BME280_pressure;Samples;Min_cycle;Max_cycle;Signal;HPM_P1;HPM_P2
2023/05/30 05:50:51;;;;;;;7.38;2.90;;;;;;;;;;10616460;27;20427;-82
2023/05/30 05:55:53;;;;;;;7.68;3.63;;;;;;;;;;10618009;28;20035;-82
2023/05/30 06:00:54;;;;;;;8.13;3.08;;;;;;;;;;10586367;22;20044;-81
2023/05/30 06:05:55;;;;;;;7.45;2.78;;;;;;;;;;10544381;28;20021;-81
2023/05/30 06:10:56;;;;;;;;;;;;;;;;;;10518367;28;20032;-81
2023/05/30 06:15:58;;;;;;;7.63;3.17;;;;;;;;;;10494245;28;19999;-81
2023/05/30 06:20:59;;;;;;;6.30;2.50;;;;;;;;;;10486198;28;20051;-81
2023/05/30 06:26:00;;;;;;;7.53;3.30;;;;;;;;;;10488110;28;20021;-82
2023/05/30 06:31:01;;;;;;;9.38;3.53;;;;;;;;;;10486648;28;20131;-83
2023/05/30 06:36:02;;;;;;;9.48;3.30;;;;;;;;;;10485170;28;20107;-82
2023/05/30 06:41:03;;;;;;;8.10;3.15;;;;;;;;;;10487791;28;20032;-83
2023/05/30 06:46:05;;;;;;;8.05;3.17;;;;;;;;;;10483153;28;20119;-81
2023/05/30 06:51:06;;;;;;;8.55;3.60;;;;;;;;;;10485757;28;20028;-82
2023/05/30 06:56:07;;;;;;;11.38;4.15;;;;;;;;;;10484586;28;20096;-82
2023/05/30 07:01:08;;;;;;;5.18;2.47;;;;;;;;;;10470043;28;20029;-82
2023/05/30 07:06:10;;;;;;;7.07;3.17;;;;;;;;;;10457766;28;20043;-82
2023/05/30 07:11:11;;;;;;;10.15;3.95;;;;;;;;;;10457338;28;20134;-85
2023/05/30 07:16:13;;;;;;;10.02;3.65;;;;;;;;;;10462484;28;20118;-84
2023/05/30 07:21:14;;;;;;;7.50;3.53;;;;;;;;;;10455358;28;20032;-84
2023/05/30 07:26:15;;;;;;;6.90;3.50;;;;;;;;;;10463331;28;20032;-85
2023/05/30 07:31:16;;;;;;;8.82;4.65;;;;;;;;;;10490222;28;20024;-85
2023/05/30 07:36:17;;;;;;;12.50;4.78;;;;;;;;;;10481555;28;20036;-84
2023/05/30 07:41:18;;;;;;;9.48;3.75;;;;;;;;;;10473770;28;20029;-84
2023/05/30 07:46:20;;;;;;;7.07;3.30;;;;;;;;;;10472273;28;20036;-84
2023/05/30 07:57:07;;;;;;;10.07;4.65;;;;;;;;;;10473019;28;20021;-85
2023/05/30 08:02:08;;;;;;;8.52;4.18;;;;;;;;;;10453275;28;20066;-84
2023/05/30 08:07:10;;;;;;;11.55;5.55;;;;;;;;;;10453638;28;20029;-85
2023/05/30 08:12:22;;;;;;;11.77;4.90;;;;;;;;;;10475008;28;20092;-87
2023/05/30 08:17:25;;;;;;;5.60;2.92;;;;;;;;;;10471624;28;20112;-84
2023/05/30 08:22:26;;;;;;;7.90;3.75;;;;;;;;;;10451127;28;20017;-85
2023/05/30 08:27:27;;;;;;;6.07;3.78;;;;;;;;;;10452938;28;20039;-85
2023/05/30 08:32:28;;;;;;;10.23;6.00;;;;;;;;;;10457102;28;20028;-85
2023/05/30 08:37:35;;;;;;;8.90;4.07;;;;;;;;;;10467444;28;20021;-85
2023/05/30 08:42:36;;;;;;;6.78;3.58;;;;;;;;;;10463044;28;20467;-84
2023/05/30 08:47:37;;;;;;;7.40;3.67;;;;;;;;;;10457262;28;20418;-83
2023/05/30 08:52:39;;;;;;;6.68;3.13;;;;;;;;;;10454693;28;20028;-83
2023/05/30 08:57:40;;;;;;;8.57;4.18;;;;;;;;;;10455566;28;20059;-84
2023/05/30 09:02:47;;;;;;;7.97;3.40;;;;;;;;;;10454554;28;20059;-85
2023/05/30 09:07:49;;;;;;;7.85;3.33;;;;;;;;;;10475360;28;20105;-85
2023/05/30 09:12:51;;;;;;;7.28;2.58;;;;;;;;;;10452670;28;20029;-85
2023/05/30 09:17:52;;;;;;;8.82;4.20;;;;;;;;;;10462008;28;20059;-85
2023/05/30 09:22:54;;;;;;;7.47;3.60;;;;;;;;;;10460412;28;20135;-85
2023/05/30 09:27:55;;;;;;;8.85;3.10;;;;;;;;;;10456735;28;20025;-85
2023/05/30 09:33:08;;;;;;;8.32;4.45;;;;;;;;;;10449183;28;20078;-85
2023/05/30 09:38:09;;;;;;;8.98;4.78;;;;;;;;;;10452497;28;20064;-85
2023/05/30 09:43:36;;;;;;;6.23;3.40;;;;;;;;;;10473842;28;20526;-85
2023/05/30 09:48:41;;;;;;;11.45;4.07;;;;;;;;;;10450134;28;20028;-86
2023/05/30 09:53:54;;;;;;;9.98;4.97;;;;;;;;;;10451978;28;20094;-85
2023/05/30 09:59:06;;;;;;;7.63;4.15;;;;;;;;;;10453102;28;20539;-85
2023/05/30 10:04:34;;;;;;;10.07;5.80;;;;;;;;;;10452273;28;20077;-86
2023/05/30 10:09:35;;;;;;;8.00;4.47;;;;;;;;;;10452577;28;20363;-84
2023/05/30 10:14:48;;;;;;;6.22;2.67;;;;;;;;;;10447422;28;20033;-85
2023/05/30 10:19:52;;;;;;;7.03;4.32;;;;;;;;;;10448543;28;20025;-85
2023/05/30 10:24:54;;;;;;;8.98;4.80;;;;;;;;;;10447974;28;20086;-84
2023/05/30 10:30:06;;;;;;;7.72;3.95;;;;;;;;;;10463986;28;20352;-85
2023/05/30 10:35:12;;;;;;;9.23;4.70;;;;;;;;;;10451509;28;20108;-85
2023/05/30 10:40:19;;;;;;;7.75;4.60;;;;;;;;;;10453756;28;20029;-85
2023/05/30 10:45:59;;;;;;;9.30;5.70;;;;;;;;;;10475660;28;20383;-86
2023/05/30 10:51:24;;;;;;;5.10;3.13;;;;;;;;;;10471852;28;20098;-87
2023/05/30 10:56:41;;;;;;;8.63;4.50;;;;;;;;;;10455363;28;20040;-85
2023/05/30 11:01:58;;;;;;;9.65;5.57;;;;;;;;;;10454347;28;20044;-85
2023/05/30 11:07:01;;;;;;;7.75;3.67;;;;;;;;;;10435730;28;20041;-86
2023/05/30 11:12:32;;;;;;;7.40;3.75;;;;;;;;;;10469478;28;20017;-86
2023/05/30 11:17:39;;;;;;;9.23;4.60;;;;;;;;;;10469383;28;20063;-85
2023/05/30 11:23:06;;;;;;;7.25;4.10;;;;;;;;;;10443380;28;20083;-85
2023/05/30 11:28:07;;;;;;;9.10;5.30;;;;;;;;;;10472923;28;20139;-85
2023/05/30 11:33:17;;;;;;;7.20;3.83;;;;;;;;;;10458547;28;20479;-84
2023/05/30 11:38:22;;;;;;;7.18;4.05;;;;;;;;;;10474865;28;20025;-85
2023/05/30 11:43:23;;;;;;;8.88;4.20;;;;;;;;;;10484171;28;20044;-85
2023/05/30 11:48:24;;;;;;;6.43;3.30;;;;;;;;;;10479305;28;20021;-85
2023/05/30 11:53:26;;;;;;;9.88;4.57;;;;;;;;;;10477237;28;20079;-85
2023/05/30 11:58:27;;;;;;;7.53;4.00;;;;;;;;;;10480457;28;20041;-84
2023/05/30 12:03:31;;;;;;;10.20;3.85;;;;;;;;;;10485198;28;20032;-84
2023/05/30 12:08:33;;;;;;;7.22;4.07;;;;;;;;;;10468479;28;20021;-85
2023/05/30 12:13:34;;;;;;;9.65;4.30;;;;;;;;;;10470377;28;20024;-84
2023/05/30 12:18:37;;;;;;;10.10;4.60;;;;;;;;;;10469132;28;20052;-86
2023/05/30 12:23:44;;;;;;;6.70;4.10;;;;;;;;;;10472288;28;20017;-84
2023/05/30 12:28:49;;;;;;;9.05;4.47;;;;;;;;;;10463941;28;20169;-85
2023/05/30 12:33:50;;;;;;;7.10;4.50;;;;;;;;;;10465874;28;20029;-85
2023/05/30 12:38:55;;;;;;;7.43;3.53;;;;;;;;;;10458055;28;20035;-86
2023/05/30 12:43:56;;;;;;;8.18;3.60;;;;;;;;;;10466409;28;20012;-85
2023/05/30 12:48:57;;;;;;;6.28;3.60;;;;;;;;;;10460775;28;20044;-85
2023/05/30 12:53:59;;;;;;;6.57;3.90;;;;;;;;;;10459328;28;20056;-86
2023/05/30 12:59:00;;;;;;;9.32;4.00;;;;;;;;;;10463328;28;20028;-85
2023/05/30 13:04:01;;;;;;;11.88;4.43;;;;;;;;;;10465021;28;20056;-85
2023/05/30 13:09:03;;;;;;;6.95;3.67;;;;;;;;;;10457581;28;20068;-86
2023/05/30 13:14:05;;;;;;;10.27;4.07;;;;;;;;;;10460102;28;20025;-85
2023/05/30 13:19:08;;;;;;;7.10;4.28;;;;;;;;;;10456115;28;20028;-85
2023/05/30 13:24:09;;;;;;;7.70;4.05;;;;;;;;;;10457867;28;20051;-85
2023/05/30 13:29:10;;;;;;;6.18;3.30;;;;;;;;;;10456379;28;20418;-84
2023/05/30 13:34:11;;;;;;;8.05;3.75;;;;;;;;;;10454631;28;20025;-85
2023/05/30 13:39:12;;;;;;;11.25;5.30;;;;;;;;;;10469831;28;20064;-85
2023/05/30 13:44:13;;;;;;;10.15;4.18;;;;;;;;;;10456160;28;20021;-86
2023/05/30 13:49:14;;;;;;;8.77;3.70;;;;;;;;;;10457544;28;20063;-85
2023/05/30 13:54:15;;;;;;;8.68;3.55;;;;;;;;;;10470074;28;20096;-86
2023/05/30 13:59:17;;;;;;;8.73;4.38;;;;;;;;;;10453846;28;20037;-87
2023/05/30 14:04:18;;;;;;;12.63;6.78;;;;;;;;;;10447744;28;20538;-85
2023/05/30 14:09:21;;;;;;;7.88;3.40;;;;;;;;;;10451658;28;20112;-85
2023/05/30 14:14:24;;;;;;;10.68;3.58;;;;;;;;;;10458541;28;20029;-84
2023/05/30 14:19:29;;;;;;;5.82;3.03;;;;;;;;;;10456223;28;20084;-86
2023/05/30 14:24:30;;;;;;;9.88;5.20;;;;;;;;;;10455980;28;20017;-86
2023/05/30 14:29:32;;;;;;;6.30;3.40;;;;;;;;;;10456226;28;20021;-86
2023/05/30 14:34:33;;;;;;;6.63;3.60;;;;;;;;;;10457371;28;20040;-86
2023/05/30 14:39:34;;;;;;;12.43;3.67;;;;;;;;;;10457126;28;20432;-85
2023/05/30 14:44:35;;;;;;;7.63;3.67;;;;;;;;;;10474830;28;20032;-85
2023/05/30 14:49:36;;;;;;;7.55;3.72;;;;;;;;;;10463093;28;20131;-86
2023/05/30 14:54:37;;;;;;;7.47;3.83;;;;;;;;;;10482556;28;20035;-84
2023/05/30 14:59:39;;;;;;;8.13;3.78;;;;;;;;;;10474928;28;20379;-86
2023/05/30 15:04:40;;;;;;;7.72;3.55;;;;;;;;;;10461319;28;20041;-84
2023/05/30 15:09:41;;;;;;;9.27;4.05;;;;;;;;;;10484959;28;20040;-84
2023/05/30 15:14:42;;;;;;;6.55;3.35;;;;;;;;;;10468645;28;20514;-84
2023/05/30 15:19:43;;;;;;;8.13;3.45;;;;;;;;;;10482926;28;20041;-84
2023/05/30 15:24:44;;;;;;;6.38;3.35;;;;;;;;;;10482392;28;20037;-85
2023/05/30 15:29:45;;;;;;;6.03;3.40;;;;;;;;;;10463342;28;20029;-85
2023/05/30 15:34:46;;;;;;;7.15;3.50;;;;;;;;;;10471693;28;20036;-84
2023/05/30 15:39:48;;;;;;;5.25;3.20;;;;;;;;;;10465828;28;20106;-85
2023/05/30 15:44:49;;;;;;;6.72;3.45;;;;;;;;;;10464497;28;20017;-84
2023/05/30 15:49:50;;;;;;;7.38;3.47;;;;;;;;;;10464423;28;20387;-84
2023/05/30 15:54:51;;;;;;;5.15;3.53;;;;;;;;;;10465852;28;20463;-84
2023/05/30 15:59:52;;;;;;;7.25;3.28;;;;;;;;;;10464990;28;20029;-83
2023/05/30 16:04:53;;;;;;;10.20;3.42;;;;;;;;;;10461357;28;20383;-84
2023/05/30 16:09:54;;;;;;;5.75;3.75;;;;;;;;;;10461082;28;20025;-84
2023/05/30 16:14:55;;;;;;;4.80;3.17;;;;;;;;;;10462326;28;20111;-84
2023/05/30 16:19:56;;;;;;;7.85;3.88;;;;;;;;;;10463301;28;20029;-84
2023/05/30 16:24:57;;;;;;;5.00;3.08;;;;;;;;;;10456420;28;20382;-83
2023/05/30 16:29:58;;;;;;;6.18;3.50;;;;;;;;;;10451724;28;20102;-84
2023/05/30 16:35:00;;;;;;;5.00;3.50;;;;;;;;;;10456493;28;20020;-83
2023/05/30 16:40:04;;;;;;;5.65;3.35;;;;;;;;;;10457196;28;20033;-84
2023/05/30 16:45:08;;;;;;;3.75;2.55;;;;;;;;;;10473371;28;20028;-84
2023/05/30 16:50:43;;;;;;;;;;;;;;;;;;;;;
2023/05/30 16:55:47;;;;;;;6.72;3.80;;;;;;;;;;10475814;28;20028;-85
2023/05/30 17:00:49;;;;;;;4.30;3.25;;;;;;;;;;10456462;28;20037;-86
2023/05/30 17:06:00;;;;;;;7.78;4.05;;;;;;;;;;10454697;28;20048;-86
2023/05/30 17:11:01;;;;;;;6.90;4.28;;;;;;;;;;10458843;28;20455;-85
2023/05/30 17:16:03;;;;;;;8.98;4.22;;;;;;;;;;10452725;28;20481;-85
2023/05/30 17:21:05;;;;;;;5.53;3.28;;;;;;;;;;10456534;28;20052;-85
2023/05/30 17:26:17;;;;;;;5.60;2.53;;;;;;;;;;10453351;28;20035;-85
2023/05/30 17:31:21;;;;;;;7.85;4.85;;;;;;;;;;10453813;28;20032;-86
2023/05/30 17:36:31;;;;;;;5.68;2.97;;;;;;;;;;10453976;28;20013;-86
2023/05/30 17:42:02;;;;;;;6.15;3.38;;;;;;;;;;10447459;28;20063;-85
2023/05/30 17:47:04;;;;;;;5.30;3.50;;;;;;;;;;10447899;28;20063;-85
2023/05/30 17:52:14;;;;;;;8.20;3.40;;;;;;;;;;10448844;28;20056;-85
2023/05/30 17:57:16;;;;;;;6.57;3.92;;;;;;;;;;10450012;28;20032;-85
2023/05/30 18:02:19;;;;;;;7.50;4.72;;;;;;;;;;10449384;28;20123;-84
2023/05/30 18:07:21;;;;;;;6.70;4.50;;;;;;;;;;10450832;28;20024;-84
2023/05/30 18:12:22;;;;;;;6.75;3.72;;;;;;;;;;10542704;23;20048;-85
2023/05/30 18:17:35;;;;;;;5.38;3.67;;;;;;;;;;10533732;28;20028;-85
2023/05/30 18:22:40;;;;;;;5.40;3.17;;;;;;;;;;10551551;27;20038;-85
2023/05/30 18:27:43;;;;;;;4.25;3.30;;;;;;;;;;10571001;27;20036;-85
2023/05/30 18:33:03;;;;;;;4.93;4.40;;;;;;;;;;10551614;28;20024;-85
2023/05/30 18:38:14;;;;;;;5.35;3.83;;;;;;;;;;10534572;28;20032;-85
2023/05/30 18:43:15;;;;;;;4.60;3.17;;;;;;;;;;10527704;28;20481;-85
2023/05/30 18:48:19;;;;;;;6.40;4.22;;;;;;;;;;10529080;28;20032;-85
2023/05/30 18:53:20;;;;;;;7.82;4.25;;;;;;;;;;10539097;28;20054;-85
2023/05/30 18:58:26;;;;;;;4.72;4.22;;;;;;;;;;10565605;27;20498;-85
2023/05/30 19:03:28;;;;;;;7.47;4.20;;;;;;;;;;10542606;28;20032;-85
2023/05/30 19:08:32;;;;;;;3.67;2.90;;;;;;;;;;10542429;28;20119;-85
2023/05/30 19:13:40;;;;;;;5.05;4.55;;;;;;;;;;10542931;28;20027;-85
